Weather forecasts are calculated to a 100 metre elevation grid, providing ultimate accuracy for high elevation routes. See the “severe weather” column for any noteworthy conditions.
For use of the snow symbols: HWC = high water content (wet snow). MWC = moderate water content. NWC = low water content (powder type). Confidence of snow accumulation is increased during incidence of NWC.


Time. Apparent Temperature Rain Cloud Dir Avg. Wind Gust. Wind Snow Accum. Chance of settle. Freezing height(beta) Dew Point Severe Weather
Tue 15th 04:00 6.5°C 0.0 mm 77% 0 mph 1 mph 0.00 cm % 1,298m 4.7°C
05:00 6.8°C mist/fog in vicinity 0.0 mm 79% 1 mph 1 mph 0.00 cm % 1,130m 4.6°C poor vis, mist
06:00 7.6°C mist/fog in vicinity 0.0 mm 83% 1 mph 1 mph 0.00 cm % 1,263m 4.4°C poor vis, mist
07:00 9.1°C mist/fog in vicinity 0.0 mm 95% 1 mph 2 mph 0.00 cm % 1,207m 4.3°C poor vis, mist
08:00 11.2°C mist/fog in vicinity 0.0 mm 100% 2 mph 3 mph 0.00 cm % 1,124m 4.0°C poor vis, mist
09:00 12.5°C 0.0 mm 100% 4 mph 7 mph 0.00 cm % 1,247m 4.1°C
10:00 13.5°C 0.0 mm 100% 5 mph 9 mph 0.00 cm % 1,352m 4.3°C
11:00 14.6°C 0.0 mm 100% 7 mph 11 mph 0.00 cm % 1,455m 4.8°C
12:00 15.6°C 0.0 mm 100% 8 mph 13 mph 0.00 cm % 1,564m 5.2°C
13:00 16.7°C 0.0 mm 96% 10 mph 16 mph 0.00 cm % 1,666m 5.9°C
14:00 17.2°C 0.0 mm 61% 11 mph 18 mph 0.00 cm % 1,724m 6.6°C
15:00 17.6°C 0.0 mm 47% 11 mph 18 mph 0.00 cm % 1,756m 7.0°C
16:00 17.6°C 0.0 mm 41% 12 mph 20 mph 0.00 cm % 1,760m 7.6°C
17:00 17.3°C 0.0 mm 36% 12 mph 20 mph 0.00 cm % 1,732m 8.3°C
18:00 16.8°C 0.0 mm 36% 11 mph 18 mph 0.00 cm % 1,678m 9.0°C
19:00 15.8°C 0.0 mm 71% 10 mph 17 mph 0.00 cm % 1,579m 9.0°C
20:00 14.2°C 0.0 mm 61% 9 mph 15 mph 0.00 cm % 1,888m 9.2°C
21:00 12.5°C 0.0 mm 59% 8 mph 13 mph 0.00 cm % 2,081m 9.3°C
22:00 11.8°C 0.0 mm 65% 8 mph 13 mph 0.00 cm % 1,962m 9.2°C
23:00 10.8°C 0.0 mm 65% 9 mph 14 mph 0.00 cm % 1,805m 8.0°C
Wed 16th 00:00 9.9°C 0.0 mm 56% 8 mph 13 mph 0.00 cm % 1,655m 6.5°C
01:00 9.4°C 0.0 mm 68% 8 mph 13 mph 0.00 cm % 1,560m 5.6°C
02:00 9.1°C 0.0 mm 84% 8 mph 12 mph 0.00 cm % 1,210m 4.7°C
03:00 9.2°C 0.0 mm 89% 8 mph 12 mph 0.00 cm % 1,223m 3.8°C
04:00 8.9°C 0.0 mm 92% 7 mph 12 mph 0.00 cm % 888m 2.7°C
05:00 9.2°C 0.0 mm 89% 7 mph 11 mph 0.00 cm % 917m 2.8°C
06:00 10.7°C 0.0 mm 88% 8 mph 13 mph 0.00 cm % 1,074m 3.7°C
07:00 12.6°C 0.0 mm 21% 9 mph 15 mph 0.00 cm % 1,264m 5.0°C
08:00 14.4°C 0.0 mm 27% 10 mph 16 mph 0.00 cm % 1,441m 7.0°C
09:00 16.0°C 0.0 mm 22% 11 mph 19 mph 0.00 cm % 1,599m 8.4°C
10:00 17.3°C 0.0 mm 18% 12 mph 19 mph 0.00 cm % 1,731m 9.3°C
11:00 18.4°C 0.0 mm 16% 13 mph 21 mph 0.00 cm % 1,835m 10.0°C
12:00 19.2°C 0.0 mm 18% 13 mph 21 mph 0.00 cm % 1,921m 10.4°C
13:00 19.5°C 0.0 mm 56% 13 mph 22 mph 0.00 cm % 1,948m 10.7°C
14:00 19.0°C 0.0 mm 60% 12 mph 19 mph 0.00 cm % 1,898m 11.0°C
15:00 18.7°C 0.0 mm 65% 11 mph 17 mph 0.00 cm % 1,871m 10.9°C
16:00 17.5°C 0.0 mm 71% 9 mph 14 mph 0.00 cm % 1,748m 11.1°C
17:00 15.8°C 0.0 mm 77% 8 mph 13 mph 0.00 cm % 2,112m 11.0°C
18:00 15.4°C 0.0 mm 80% 6 mph 10 mph 0.00 cm % 2,059m 10.8°C
19:00 14.7°C 0.0 mm 94% 7 mph 11 mph 0.00 cm % 2,450m 10.7°C
20:00 13.6°C 0.0 mm 91% 6 mph 10 mph 0.00 cm % 2,263m 10.2°C
21:00 12.5°C 0.0 mm 86% 6 mph 9 mph 0.00 cm % 2,080m 9.7°C
22:00 11.7°C 0.0 mm 89% 6 mph 9 mph 0.00 cm % 1,954m 9.3°C
23:00 10.8°C 0.0 mm 88% 4 mph 6 mph 0.00 cm % 2,164m 8.8°C
Thu 17th 00:00 10.2°C mist/fog in vicinity 0.0 mm 84% 5 mph 8 mph 0.00 cm % 2,036m 8.6°C poor vis, mist
01:00 9.8°C mist/fog in vicinity 0.0 mm 93% 4 mph 6 mph 0.00 cm % 1,960m 8.2°C poor vis, mist
02:00 10.0°C 0.0 mm 85% 5 mph 8 mph 0.00 cm % 1,994m 8.0°C
03:00 9.9°C 0.0 mm 86% 4 mph 6 mph 0.00 cm % 1,645m 7.7°C
04:00 10.0°C 0.0 mm 89% 4 mph 6 mph 0.00 cm % 1,671m 7.6°C
05:00 10.3°C 0.0 mm 91% 5 mph 8 mph 0.00 cm % 1,721m 7.3°C
06:00 10.6°C 0.0 mm 93% 4 mph 6 mph 0.00 cm % 1,767m 7.2°C
07:00 11.2°C 0.0 mm 100% 5 mph 9 mph 0.00 cm % 1,862m 7.2°C
08:00 11.0°C 0.0 mm 100% 6 mph 10 mph 0.00 cm % 1,833m 7.4°C
09:00 10.6°C 0.0 mm 100% 6 mph 9 mph 0.00 cm % 1,762m 8.2°C
10:00 11.1°C light rain 0.6 mm 100% 5 mph 8 mph 0.00 cm % 1,855m 8.5°C
11:00 12.4°C light rain 0.6 mm 100% 6 mph 10 mph 0.00 cm % 2,071m 8.8°C
12:00 14.4°C rainfall in vicinity 0.2 mm 100% 5 mph 9 mph 0.00 cm % 1,916m 9.8°C
13:00 14.9°C 0.0 mm 94% 6 mph 9 mph 0.00 cm % 1,981m 10.3°C
14:00 15.3°C 0.0 mm 96% 6 mph 10 mph 0.00 cm % 2,035m 10.5°C
15:00 14.8°C 0.0 mm 98% 6 mph 10 mph 0.00 cm % 1,979m 10.4°C
16:00 14.3°C 0.0 mm 98% 7 mph 11 mph 0.00 cm % 1,910m 10.1°C
17:00 13.6°C 0.0 mm 99% 8 mph 12 mph 0.00 cm % 2,273m 9.6°C
18:00 13.1°C 0.0 mm 99% 8 mph 13 mph 0.00 cm % 2,175m 9.5°C
19:00 12.5°C 0.0 mm 100% 7 mph 11 mph 0.00 cm % 2,075m 9.1°C
20:00 12.0°C 0.0 mm 100% 5 mph 8 mph 0.00 cm % 2,004m 8.4°C
21:00 11.6°C 0.0 mm 100% 5 mph 9 mph 0.00 cm % 1,931m 7.6°C
22:00 11.2°C 0.0 mm 100% 5 mph 9 mph 0.00 cm % 1,496m 7.0°C
23:00 10.9°C 0.0 mm 100% 5 mph 7 mph 0.00 cm % 1,823m 6.9°C
Fri 18th 00:00 10.4°C 0.0 mm 100% 5 mph 8 mph 0.00 cm % 1,737m 7.0°C
01:00 10.1°C 0.0 mm 98% 5 mph 8 mph 0.00 cm % 1,680m 7.1°C
02:00 10.0°C 0.0 mm 98% 3 mph 6 mph 0.00 cm % 1,673m 7.2°C
03:00 9.9°C mist/fog in vicinity 0.0 mm 95% 2 mph 3 mph 0.00 cm % 1,654m 7.3°C poor vis, mist
04:00 9.6°C 0.0 mm 95% 4 mph 6 mph 0.00 cm % 1,914m 7.6°C
05:00 10.3°C 0.0 mm 96% 4 mph 7 mph 0.00 cm % 1,721m 7.9°C
06:00 11.2°C 0.0 mm 97% 7 mph 11 mph 0.00 cm % 1,858m 7.2°C
07:00 11.8°C 0.0 mm 100% 10 mph 17 mph 0.00 cm % 1,568m 6.2°C
08:00 12.4°C 0.0 mm 100% 14 mph 22 mph 0.00 cm % 1,242m 5.8°C
09:00 13.1°C 0.0 mm 100% 16 mph 25 mph 0.00 cm % 1,307m 5.9°C
10:00 14.4°C 0.0 mm 100% 16 mph 25 mph 0.00 cm % 1,439m 6.0°C
11:00 15.4°C 0.0 mm 100% 16 mph 26 mph 0.00 cm % 1,535m 6.2°C
12:00 16.0°C 0.0 mm 100% 15 mph 25 mph 0.00 cm % 1,598m 6.2°C
13:00 16.5°C 0.0 mm 54% 16 mph 25 mph 0.00 cm % 1,652m 6.5°C
14:00 16.3°C 0.0 mm 61% 16 mph 25 mph 0.00 cm % 1,630m 6.5°C
15:00 15.7°C 0.0 mm 74% 15 mph 24 mph 0.00 cm % 1,569m 6.3°C
16:00 15.0°C 0.0 mm 81% 15 mph 24 mph 0.00 cm % 1,503m 6.0°C
17:00 14.1°C 0.0 mm 84% 14 mph 23 mph 0.00 cm % 1,412m 5.9°C
18:00 13.1°C 0.0 mm 87% 13 mph 22 mph 0.00 cm % 1,311m 5.7°C
19:00 12.0°C 0.0 mm 100% 13 mph 21 mph 0.00 cm % 1,197m 5.4°C
20:00 11.1°C 0.0 mm 100% 13 mph 21 mph 0.00 cm % 1,113m 4.9°C
21:00 10.6°C 0.0 mm 100% 12 mph 19 mph 0.00 cm % 1,412m 4.8°C
22:00 9.9°C 0.0 mm 100% 10 mph 16 mph 0.00 cm % 1,320m 4.5°C
23:00 9.3°C 0.0 mm 100% 8 mph 13 mph 0.00 cm % 1,240m 4.3°C
Sat 19th 00:00 9.1°C 0.0 mm 100% 7 mph 11 mph 0.00 cm % 1,208m 4.1°C
01:00 8.9°C 0.0 mm 100% 6 mph 9 mph 0.00 cm % 1,185m 3.9°C
02:00 8.7°C 0.0 mm 100% 4 mph 7 mph 0.00 cm % 1,161m 3.7°C
03:00 8.4°C 0.0 mm 100% 3 mph 6 mph 0.00 cm % 1,121m 3.6°C

Accurate travel and weather information for the Peak District